Time;durP1;ratioP1;P1;durP2;ratioP2;P2;SDS_P1;SDS_P2;PMS_P1;PMS_P2;Temp;Humidity;BMP_temperature;BMP_pressure;BME280_temperature;BME280_humidity;BME280_pressure;Samples;Min_cycle;Max_cycle;Signal;HPM_P1;HPM_P2
2023/02/11 00:02:28;;;;;;;0.70;0.70;;;;;;;;;;4995178;28;20496;-75
2023/02/11 00:04:56;;;;;;;0.63;0.60;;;;;;;;;;4981903;28;20451;-75
2023/02/11 00:07:23;;;;;;;1.30;1.20;;;;;;;;;;4981514;28;20446;-73
2023/02/11 00:09:50;;;;;;;2.30;1.63;;;;;;;;;;4998769;28;20870;-74
2023/02/11 00:12:18;;;;;;;0.60;0.60;;;;;;;;;;4982003;28;20458;-75
2023/02/11 00:14:48;;;;;;;0.70;0.60;;;;;;;;;;4983335;28;20494;-74
2023/02/11 00:17:15;;;;;;;3.13;1.77;;;;;;;;;;4981061;28;20487;-76
2023/02/11 00:19:41;;;;;;;1.00;1.00;;;;;;;;;;4988780;28;20558;-74
2023/02/11 00:22:15;;;;;;;0.73;0.73;;;;;;;;;;4986963;28;20960;-74
2023/02/11 00:24:41;;;;;;;0.60;0.60;;;;;;;;;;4965900;28;20459;-72
2023/02/11 00:27:08;;;;;;;0.73;0.73;;;;;;;;;;4997371;28;20918;-75
2023/02/11 00:29:35;;;;;;;0.70;0.70;;;;;;;;;;4981692;28;20561;-73
2023/02/11 00:32:04;;;;;;;0.70;0.60;;;;;;;;;;4983402;28;20477;-75
2023/02/11 00:34:30;;;;;;;0.63;0.60;;;;;;;;;;4968582;28;20455;-73
2023/02/11 00:37:01;;;;;;;0.60;0.60;;;;;;;;;;4994825;28;20469;-74
2023/02/11 00:39:29;;;;;;;0.70;0.60;;;;;;;;;;4993761;28;20459;-74
2023/02/11 00:41:56;;;;;;;0.60;0.60;;;;;;;;;;4995327;28;20467;-76
2023/02/11 00:44:23;;;;;;;0.70;0.60;;;;;;;;;;4979764;28;20445;-73
2023/02/11 00:46:50;;;;;;;0.73;0.70;;;;;;;;;;4994422;28;20553;-73
2023/02/11 00:49:16;;;;;;;0.70;0.60;;;;;;;;;;4992941;28;20462;-73
2023/02/11 00:51:43;;;;;;;0.70;0.60;;;;;;;;;;4982021;28;20946;-74
2023/02/11 00:54:11;;;;;;;0.67;0.60;;;;;;;;;;4983241;28;20446;-74
2023/02/11 00:56:39;;;;;;;0.70;0.63;;;;;;;;;;4993728;28;20483;-75
2023/02/11 00:59:06;;;;;;;1.03;1.03;;;;;;;;;;4979473;28;20570;-75
2023/02/11 01:01:34;;;;;;;0.80;0.80;;;;;;;;;;4978619;28;20902;-74
2023/02/11 01:04:01;;;;;;;0.80;0.80;;;;;;;;;;4983197;28;20477;-75
2023/02/11 01:06:27;;;;;;;0.70;0.60;;;;;;;;;;4980818;28;20447;-75
2023/02/11 01:08:54;;;;;;;0.70;0.70;;;;;;;;;;4978874;28;20474;-74
2023/02/11 01:11:21;;;;;;;0.70;0.70;;;;;;;;;;4968103;28;21008;-74
2023/02/11 01:13:49;;;;;;;0.70;0.60;;;;;;;;;;4977657;28;20450;-75
2023/02/11 01:16:17;;;;;;;0.70;0.70;;;;;;;;;;4978647;28;20514;-74
2023/02/11 01:18:44;;;;;;;1.13;1.10;;;;;;;;;;4992579;28;20841;-75
2023/02/11 01:21:11;;;;;;;0.70;0.60;;;;;;;;;;4983684;28;20510;-74
2023/02/11 01:23:38;;;;;;;0.70;0.60;;;;;;;;;;4983702;28;20473;-74
2023/02/11 01:26:06;;;;;;;0.70;0.60;;;;;;;;;;4961723;28;20781;-75
2023/02/11 01:28:32;;;;;;;0.70;0.70;;;;;;;;;;4979358;28;21099;-72
2023/02/11 01:31:01;;;;;;;0.70;0.60;;;;;;;;;;4997273;28;20471;-75
2023/02/11 01:33:30;;;;;;;0.90;0.90;;;;;;;;;;4978748;28;20501;-75
2023/02/11 01:35:59;;;;;;;1.73;1.63;;;;;;;;;;4980147;28;20455;-74
2023/02/11 01:38:27;;;;;;;0.73;0.73;;;;;;;;;;4977863;28;20553;-74
2023/02/11 01:40:57;;;;;;;0.70;0.60;;;;;;;;;;4997857;28;20463;-73
2023/02/11 01:43:25;;;;;;;0.60;0.60;;;;;;;;;;4979514;28;21033;-74
2023/02/11 01:46:11;;;;;;;0.70;0.70;;;;;;;;;;4992694;28;20868;-74
2023/02/11 01:48:39;;;;;;;0.70;0.67;;;;;;;;;;4978452;28;21741;-74
2023/02/11 01:51:08;;;;;;;0.70;0.60;;;;;;;;;;4979129;28;20459;-75
2023/02/11 01:59:12;;;;;;;0.70;0.60;;;;;;;;;;4992195;28;20524;-74
2023/02/11 02:01:43;;;;;;;0.70;0.60;;;;;;;;;;4960470;28;20486;-73
2023/02/11 02:04:10;;;;;;;0.60;0.60;;;;;;;;;;4980120;28;20814;-76
2023/02/11 02:06:42;;;;;;;0.70;0.70;;;;;;;;;;4996449;28;20455;-73
2023/02/11 02:09:13;;;;;;;0.70;0.60;;;;;;;;;;4978613;28;20959;-75
2023/02/11 02:11:40;;;;;;;0.70;0.60;;;;;;;;;;4979210;28;20805;-75
2023/02/11 02:14:08;;;;;;;0.80;0.80;;;;;;;;;;4978024;28;20546;-74
2023/02/11 02:16:35;;;;;;;6.10;1.17;;;;;;;;;;4977573;28;21014;-76
2023/02/11 02:19:17;;;;;;;0.70;0.70;;;;;;;;;;4976214;28;20909;-72
2023/02/11 02:22:09;;;;;;;0.60;0.60;;;;;;;;;;4979710;28;20454;-74
2023/02/11 02:24:46;;;;;;;0.70;0.70;;;;;;;;;;4977046;28;20503;-74
2023/02/11 02:27:32;;;;;;;0.60;0.60;;;;;;;;;;4975197;28;20962;-74
2023/02/11 02:30:16;;;;;;;3.10;1.57;;;;;;;;;;4976532;28;20462;-73
2023/02/11 02:32:57;;;;;;;1.30;1.20;;;;;;;;;;4976925;28;20837;-74
2023/02/11 02:35:54;;;;;;;0.60;0.60;;;;;;;;;;4977567;28;21195;-74
2023/02/11 02:38:51;;;;;;;0.70;0.70;;;;;;;;;;4991449;28;20937;-76
2023/02/11 02:41:27;;;;;;;0.70;0.60;;;;;;;;;;4975213;28;20568;-75
2023/02/11 02:43:55;;;;;;;0.63;0.60;;;;;;;;;;4976800;28;20457;-74
2023/02/11 02:46:27;;;;;;;0.70;0.70;;;;;;;;;;4993668;28;20557;-76
2023/02/11 02:48:58;;;;;;;1.00;0.90;;;;;;;;;;4974527;28;20446;-74
2023/02/11 02:51:33;;;;;;;0.70;0.60;;;;;;;;;;4996993;28;20540;-75
2023/02/11 02:54:07;;;;;;;0.80;0.80;;;;;;;;;;4976112;28;20442;-74
2023/02/11 02:56:39;;;;;;;1.27;1.17;;;;;;;;;;4998212;28;20450;-75
2023/02/11 02:59:19;;;;;;;0.70;0.63;;;;;;;;;;4995481;28;20468;-76
2023/02/11 03:01:52;;;;;;;0.70;0.60;;;;;;;;;;4995453;28;20473;-73
2023/02/11 03:04:28;;;;;;;1.37;1.27;;;;;;;;;;4994043;28;21051;-73
2023/02/11 03:07:00;;;;;;;0.70;0.70;;;;;;;;;;4995472;28;20462;-74
2023/02/11 03:09:32;;;;;;;0.67;0.63;;;;;;;;;;4978603;28;20527;-75
2023/02/11 03:12:02;;;;;;;0.70;0.60;;;;;;;;;;4978687;28;21001;-75
2023/02/11 03:14:32;;;;;;;0.67;0.60;;;;;;;;;;4980192;28;20461;-75
2023/02/11 03:17:03;;;;;;;0.60;0.60;;;;;;;;;;4982214;28;20503;-74
2023/02/11 03:19:37;;;;;;;0.60;0.60;;;;;;;;;;4982521;28;21005;-74
2023/02/11 03:22:07;;;;;;;0.83;0.83;;;;;;;;;;4965299;28;21130;-73
2023/02/11 03:24:37;;;;;;;0.80;0.70;;;;;;;;;;4981056;28;20458;-74
2023/02/11 03:27:08;;;;;;;0.70;0.70;;;;;;;;;;4966538;28;20508;-74
2023/02/11 03:29:40;;;;;;;0.67;0.63;;;;;;;;;;4980746;28;20561;-74
2023/02/11 03:32:10;;;;;;;0.60;0.60;;;;;;;;;;4996416;28;20536;-74
2023/02/11 03:34:43;;;;;;;0.60;0.60;;;;;;;;;;4978265;28;20450;-76
2023/02/11 03:37:12;;;;;;;0.60;0.60;;;;;;;;;;4982701;28;20451;-74
2023/02/11 03:39:44;;;;;;;0.60;0.60;;;;;;;;;;4966767;28;20522;-74
2023/02/11 03:42:15;;;;;;;2.17;2.07;;;;;;;;;;4982795;28;20572;-73
2023/02/11 03:44:47;;;;;;;0.70;0.60;;;;;;;;;;4983424;28;20464;-74
2023/02/11 03:47:19;;;;;;;0.70;0.70;;;;;;;;;;4979639;28;20854;-74
2023/02/11 03:49:52;;;;;;;1.23;1.17;;;;;;;;;;4981012;28;20827;-75
2023/02/11 03:52:28;;;;;;;0.70;0.70;;;;;;;;;;4995225;28;20449;-75
2023/02/11 03:54:59;;;;;;;0.67;0.60;;;;;;;;;;4998300;28;20837;-73
2023/02/11 03:57:33;;;;;;;0.70;0.60;;;;;;;;;;4984052;28;20508;-74
2023/02/11 04:00:08;;;;;;;0.70;0.70;;;;;;;;;;4997414;28;21026;-74
2023/02/11 04:02:40;;;;;;;1.03;0.93;;;;;;;;;;4996956;28;20457;-75
2023/02/11 04:05:14;;;;;;;1.20;1.07;;;;;;;;;;4982366;28;20509;-74
2023/02/11 04:07:44;;;;;;;0.70;0.70;;;;;;;;;;4964151;28;20534;-75
2023/02/11 04:10:14;;;;;;;0.70;0.70;;;;;;;;;;4995925;28;20446;-75
2023/02/11 04:12:43;;;;;;;0.70;0.60;;;;;;;;;;4984732;28;20457;-74
2023/02/11 04:15:10;;;;;;;0.70;0.70;;;;;;;;;;4981770;28;20458;-72
2023/02/11 04:17:37;;;;;;;0.60;0.60;;;;;;;;;;4982151;28;20581;-74
2023/02/11 04:20:04;;;;;;;0.60;0.60;;;;;;;;;;4981715;28;20477;-73
2023/02/11 04:22:33;;;;;;;0.70;0.70;;;;;;;;;;4982919;28;20849;-75
2023/02/11 04:25:00;;;;;;;0.60;0.60;;;;;;;;;;4980830;28;20460;-75
2023/02/11 04:27:48;;;;;;;1.43;1.23;;;;;;;;;;4979566;28;20457;-75
2023/02/11 04:30:15;;;;;;;0.60;0.60;;;;;;;;;;4977827;28;20485;-74
2023/02/11 04:32:41;;;;;;;0.70;0.70;;;;;;;;;;4995713;28;20501;-73
2023/02/11 04:35:09;;;;;;;2.40;1.60;;;;;;;;;;4983543;28;20538;-73
2023/02/11 04:37:37;;;;;;;1.70;1.27;;;;;;;;;;4979908;28;20443;-74
2023/02/11 04:40:25;;;;;;;0.60;0.50;;;;;;;;;;4982185;28;20462;-75
2023/02/11 04:42:55;;;;;;;0.60;0.60;;;;;;;;;;4980893;28;20505;-74
2023/02/11 04:45:22;;;;;;;0.70;0.60;;;;;;;;;;4991390;28;21021;-75
2023/02/11 04:48:11;;;;;;;0.70;0.60;;;;;;;;;;4978783;28;20447;-73
2023/02/11 04:50:38;;;;;;;0.60;0.60;;;;;;;;;;4996667;28;20464;-72
2023/02/11 04:53:08;;;;;;;0.67;0.60;;;;;;;;;;4981754;28;20451;-74
2023/02/11 04:55:35;;;;;;;0.80;0.80;;;;;;;;;;4981644;28;20520;-74
2023/02/11 04:58:03;;;;;;;0.60;0.60;;;;;;;;;;4962462;28;20495;-75
2023/02/11 05:00:29;;;;;;;0.70;0.60;;;;;;;;;;4982916;28;20485;-72
2023/02/11 05:02:56;;;;;;;0.70;0.60;;;;;;;;;;4982577;28;20451;-73
2023/02/11 05:05:23;;;;;;;0.63;0.60;;;;;;;;;;4978339;28;20451;-73
2023/02/11 05:07:50;;;;;;;1.00;1.00;;;;;;;;;;4994527;28;20455;-74
2023/02/11 05:10:19;;;;;;;1.10;1.00;;;;;;;;;;4994713;28;20514;-74
2023/02/11 05:12:46;;;;;;;0.87;0.87;;;;;;;;;;4976325;28;20478;-74
2023/02/11 05:15:14;;;;;;;0.70;0.60;;;;;;;;;;4978182;28;21599;-73
2023/02/11 05:17:40;;;;;;;0.80;0.80;;;;;;;;;;4980997;28;20450;-75
2023/02/11 05:20:08;;;;;;;0.70;0.63;;;;;;;;;;4980769;28;20538;-73
2023/02/11 05:22:35;;;;;;;0.80;0.77;;;;;;;;;;4995940;28;20466;-74
2023/02/11 05:25:02;;;;;;;1.00;0.97;;;;;;;;;;4977667;28;20862;-76
2023/02/11 05:27:31;;;;;;;0.90;0.80;;;;;;;;;;4977846;28;21770;-76
2023/02/11 05:29:58;;;;;;;0.60;0.60;;;;;;;;;;4976612;28;20910;-74
2023/02/11 05:32:25;;;;;;;0.70;0.60;;;;;;;;;;4980132;28;20446;-75
2023/02/11 05:34:51;;;;;;;0.70;0.60;;;;;;;;;;4997709;28;20462;-74
2023/02/11 05:37:18;;;;;;;0.60;0.60;;;;;;;;;;4982766;28;20442;-75
2023/02/11 05:39:47;;;;;;;1.10;1.00;;;;;;;;;;4979804;28;20468;-74
2023/02/11 05:42:13;;;;;;;0.70;0.70;;;;;;;;;;4995824;28;20838;-74
2023/02/11 05:44:42;;;;;;;0.90;0.90;;;;;;;;;;4979312;28;20528;-74
2023/02/11 05:47:08;;;;;;;3.53;1.73;;;;;;;;;;4978166;28;20470;-75
2023/02/11 05:49:35;;;;;;;0.70;0.70;;;;;;;;;;4991795;28;20888;-74
2023/02/11 05:52:03;;;;;;;0.70;0.70;;;;;;;;;;4996077;28;20538;-74
2023/02/11 05:54:29;;;;;;;1.23;1.13;;;;;;;;;;4983377;28;20481;-74
2023/02/11 05:56:56;;;;;;;0.60;0.60;;;;;;;;;;4996106;28;20447;-75
2023/02/11 05:59:23;;;;;;;1.10;1.00;;;;;;;;;;4979006;28;20956;-72
2023/02/11 06:01:54;;;;;;;1.10;0.93;;;;;;;;;;4981808;28;20562;-74
2023/02/11 06:04:38;;;;;;;0.60;0.60;;;;;;;;;;4981572;28;20505;-75
2023/02/11 06:07:08;;;;;;;0.70;0.60;;;;;;;;;;4978158;28;20831;-72
2023/02/11 06:09:35;;;;;;;0.60;0.60;;;;;;;;;;4966019;28;20459;-72
2023/02/11 06:12:02;;;;;;;0.60;0.60;;;;;;;;;;4981206;28;20455;-75
2023/02/11 06:14:30;;;;;;;0.60;0.60;;;;;;;;;;4980526;28;20462;-74
2023/02/11 06:16:59;;;;;;;0.63;0.60;;;;;;;;;;4980092;28;20543;-75
2023/02/11 06:19:26;;;;;;;0.70;0.70;;;;;;;;;;4977719;28;20474;-73
2023/02/11 06:21:52;;;;;;;0.70;0.70;;;;;;;;;;4978660;28;20446;-73
2023/02/11 06:24:19;;;;;;;0.67;0.60;;;;;;;;;;4997400;28;20962;-75
2023/02/11 06:27:06;;;;;;;0.70;0.60;;;;;;;;;;4976999;28;20482;-76
2023/02/11 06:29:33;;;;;;;0.70;0.60;;;;;;;;;;4977364;28;20443;-74
2023/02/11 06:32:01;;;;;;;5.13;2.20;;;;;;;;;;4979824;28;20482;-74
2023/02/11 06:34:27;;;;;;;0.70;0.60;;;;;;;;;;4982040;28;20535;-76
2023/02/11 06:36:54;;;;;;;0.60;0.60;;;;;;;;;;4995525;28;20868;-73
2023/02/11 06:39:21;;;;;;;0.60;0.60;;;;;;;;;;4979214;28;20475;-75
2023/02/11 06:41:47;;;;;;;0.60;0.60;;;;;;;;;;4978597;28;20553;-74
2023/02/11 06:44:14;;;;;;;10.07;2.50;;;;;;;;;;4997545;28;20447;-74
2023/02/11 06:46:41;;;;;;;0.60;0.60;;;;;;;;;;4981806;28;20939;-73
2023/02/11 06:49:30;;;;;;;0.60;0.60;;;;;;;;;;4984997;28;20458;-73
2023/02/11 06:51:58;;;;;;;0.70;0.70;;;;;;;;;;4987504;28;20631;-74
2023/02/11 06:54:26;;;;;;;0.60;0.57;;;;;;;;;;4986018;28;20865;-74
2023/02/11 06:56:55;;;;;;;0.60;0.60;;;;;;;;;;4985121;28;20457;-74
2023/02/11 06:59:22;;;;;;;0.70;0.70;;;;;;;;;;5002241;28;20466;-76
2023/02/11 07:01:49;;;;;;;0.60;0.60;;;;;;;;;;4982288;28;20564;-74
2023/02/11 07:04:15;;;;;;;0.70;0.70;;;;;;;;;;4982448;28;20455;-73
2023/02/11 07:06:43;;;;;;;0.60;0.60;;;;;;;;;;4987102;28;20485;-73
2023/02/11 07:09:10;;;;;;;1.00;0.90;;;;;;;;;;4970135;28;20906;-73
2023/02/11 07:11:38;;;;;;;0.67;0.60;;;;;;;;;;4982408;28;20575;-74
2023/02/11 07:14:09;;;;;;;0.60;0.60;;;;;;;;;;4988538;28;20457;-74
2023/02/11 07:16:37;;;;;;;0.80;0.80;;;;;;;;;;4990373;28;20482;-75
2023/02/11 07:19:03;;;;;;;0.60;0.60;;;;;;;;;;4985264;28;20557;-74
2023/02/11 07:21:31;;;;;;;0.70;0.60;;;;;;;;;;4982472;28;20513;-74
2023/02/11 07:23:59;;;;;;;1.30;1.20;;;;;;;;;;4983691;28;21169;-75
2023/02/11 07:26:27;;;;;;;0.87;0.87;;;;;;;;;;4983981;28;20461;-75
2023/02/11 07:28:54;;;;;;;0.60;0.60;;;;;;;;;;4986723;28;20850;-74
2023/02/11 07:31:22;;;;;;;0.70;0.60;;;;;;;;;;4985000;28;20902;-74
2023/02/11 07:33:50;;;;;;;0.60;0.60;;;;;;;;;;4999195;28;20825;-74
2023/02/11 07:36:18;;;;;;;0.60;0.60;;;;;;;;;;4983523;28;20465;-76
2023/02/11 07:38:46;;;;;;;3.07;2.27;;;;;;;;;;4984661;28;20451;-75
2023/02/11 07:41:15;;;;;;;0.70;0.60;;;;;;;;;;5000766;28;20546;-74
2023/02/11 07:43:42;;;;;;;0.60;0.60;;;;;;;;;;4983711;28;20446;-75
2023/02/11 07:46:10;;;;;;;0.67;0.67;;;;;;;;;;5001147;28;20478;-73
2023/02/11 07:48:37;;;;;;;0.93;0.93;;;;;;;;;;4987361;28;20999;-74
2023/02/11 07:51:05;;;;;;;1.37;1.27;;;;;;;;;;4981903;28;20789;-74
2023/02/11 07:53:54;;;;;;;0.60;0.60;;;;;;;;;;4986095;28;20460;-73
2023/02/11 07:56:22;;;;;;;2.00;1.90;;;;;;;;;;4964079;28;20505;-74
2023/02/11 07:58:49;;;;;;;0.60;0.60;;;;;;;;;;4981886;28;21058;-74
2023/02/11 08:01:18;;;;;;;0.67;0.60;;;;;;;;;;4978162;28;20506;-75
2023/02/11 08:03:51;;;;;;;0.60;0.60;;;;;;;;;;4980612;28;20449;-74
2023/02/11 08:06:19;;;;;;;0.60;0.60;;;;;;;;;;4983667;28;21214;-73
2023/02/11 08:08:46;;;;;;;0.60;0.60;;;;;;;;;;4978739;28;20458;-75
2023/02/11 08:11:33;;;;;;;0.70;0.70;;;;;;;;;;4981925;28;20979;-75
2023/02/11 08:14:00;;;;;;;0.70;0.70;;;;;;;;;;4982256;28;20457;-76
2023/02/11 08:16:28;;;;;;;0.60;0.60;;;;;;;;;;4980275;28;20844;-74
2023/02/11 08:18:56;;;;;;;1.17;1.07;;;;;;;;;;4979918;28;20827;-74
2023/02/11 08:21:24;;;;;;;0.60;0.60;;;;;;;;;;4979973;28;20526;-75
2023/02/11 08:23:51;;;;;;;0.70;0.63;;;;;;;;;;4980814;28;20463;-73
2023/02/11 08:26:19;;;;;;;0.67;0.60;;;;;;;;;;4981102;28;20590;-75
2023/02/11 08:28:49;;;;;;;0.70;0.67;;;;;;;;;;4982706;28;20469;-75
2023/02/11 08:31:20;;;;;;;0.60;0.60;;;;;;;;;;4983160;28;21577;-74
2023/02/11 08:33:47;;;;;;;0.77;0.77;;;;;;;;;;4983045;28;20452;-73
2023/02/11 08:36:15;;;;;;;2.70;1.07;;;;;;;;;;4999459;28;20455;-74
2023/02/11 08:38:42;;;;;;;3.03;2.00;;;;;;;;;;4978812;28;20533;-75
2023/02/11 08:41:09;;;;;;;0.70;0.60;;;;;;;;;;4980697;28;20468;-75
2023/02/11 08:43:40;;;;;;;0.60;0.50;;;;;;;;;;4979864;28;20455;-74
2023/02/11 08:46:08;;;;;;;2.97;1.33;;;;;;;;;;4994528;28;20471;-75
2023/02/11 08:48:36;;;;;;;0.70;0.70;;;;;;;;;;4962963;28;20453;-75
2023/02/11 08:51:23;;;;;;;0.60;0.60;;;;;;;;;;4981536;28;20460;-75
2023/02/11 08:53:50;;;;;;;0.60;0.60;;;;;;;;;;4980726;28;20455;-75
2023/02/11 08:56:22;;;;;;;0.60;0.60;;;;;;;;;;4982950;28;20993;-74
2023/02/11 08:58:49;;;;;;;1.27;1.17;;;;;;;;;;4979732;28;20538;-74
2023/02/11 09:01:18;;;;;;;0.60;0.60;;;;;;;;;;4977384;28;20485;-73
2023/02/11 09:03:48;;;;;;;0.60;0.60;;;;;;;;;;4995073;28;20466;-75
2023/02/11 09:06:17;;;;;;;0.70;0.70;;;;;;;;;;4978741;28;20467;-75
2023/02/11 09:08:50;;;;;;;3.50;1.00;;;;;;;;;;4995658;28;20486;-74
2023/02/11 09:11:18;;;;;;;1.57;1.20;;;;;;;;;;4960748;28;20454;-74
2023/02/11 09:13:45;;;;;;;0.60;0.50;;;;;;;;;;4993423;28;20490;-76
2023/02/11 09:16:15;;;;;;;0.60;0.60;;;;;;;;;;4978415;28;20482;-75
2023/02/11 09:18:44;;;;;;;0.60;0.60;;;;;;;;;;4975427;28;20475;-75
2023/02/11 09:21:11;;;;;;;0.60;0.60;;;;;;;;;;5079682;23;20583;-76
2023/02/11 09:23:42;;;;;;;2.00;1.90;;;;;;;;;;5030625;28;21017;-76
2023/02/11 09:26:11;;;;;;;0.90;0.80;;;;;;;;;;5020761;28;20445;-73
2023/02/11 09:28:37;;;;;;;0.60;0.60;;;;;;;;;;5020803;28;20447;-73
2023/02/11 09:31:07;;;;;;;1.20;1.10;;;;;;;;;;5021797;28;20437;-76
2023/02/11 09:33:34;;;;;;;0.60;0.60;;;;;;;;;;5016874;28;20458;-75
2023/02/11 09:36:03;;;;;;;1.53;1.43;;;;;;;;;;5013803;28;20476;-74
2023/02/11 09:38:30;;;;;;;0.60;0.60;;;;;;;;;;5014432;28;20465;-76
2023/02/11 09:40:56;;;;;;;0.60;0.60;;;;;;;;;;5018590;28;20466;-76
2023/02/11 09:43:30;;;;;;;0.60;0.60;;;;;;;;;;5032796;28;20457;-73
2023/02/11 09:45:58;;;;;;;0.60;0.60;;;;;;;;;;5038151;28;20457;-75
2023/02/11 09:48:26;;;;;;;0.60;0.60;;;;;;;;;;5016365;28;20451;-73
2023/02/11 09:50:54;;;;;;;1.07;1.00;;;;;;;;;;5016899;28;20505;-74
2023/02/11 09:53:26;;;;;;;0.60;0.60;;;;;;;;;;5020730;28;20457;-74
2023/02/11 09:55:54;;;;;;;1.00;0.97;;;;;;;;;;5018763;28;20445;-75
2023/02/11 09:58:24;;;;;;;0.60;0.60;;;;;;;;;;5001228;28;20454;-73
2023/02/11 10:00:56;;;;;;;0.70;0.67;;;;;;;;;;5034433;28;20573;-74
2023/02/11 10:03:41;;;;;;;0.70;0.70;;;;;;;;;;5019287;28;20461;-75
2023/02/11 10:06:14;;;;;;;0.60;0.60;;;;;;;;;;5019595;28;20479;-75
2023/02/11 10:08:48;;;;;;;0.60;0.57;;;;;;;;;;5015240;28;20449;-75
2023/02/11 10:11:20;;;;;;;0.60;0.60;;;;;;;;;;5020268;28;20447;-75
2023/02/11 10:14:03;;;;;;;0.60;0.60;;;;;;;;;;5021368;28;20828;-75
2023/02/11 10:16:36;;;;;;;0.60;0.60;;;;;;;;;;5016200;28;20459;-75
2023/02/11 10:19:12;;;;;;;0.60;0.60;;;;;;;;;;5021286;28;20464;-74
2023/02/11 10:21:49;;;;;;;0.70;0.70;;;;;;;;;;5019976;28;20594;-77
2023/02/11 10:24:18;;;;;;;0.60;0.60;;;;;;;;;;5018839;28;20451;-74
2023/02/11 10:26:45;;;;;;;1.57;1.50;;;;;;;;;;5019112;28;20440;-76
2023/02/11 10:29:17;;;;;;;0.60;0.60;;;;;;;;;;5015529;28;20454;-74
2023/02/11 10:31:45;;;;;;;1.33;1.27;;;;;;;;;;5035346;28;20500;-73
2023/02/11 10:34:13;;;;;;;1.67;1.57;;;;;;;;;;5017889;28;20447;-75
2023/02/11 10:36:41;;;;;;;1.43;1.33;;;;;;;;;;5020781;28;20469;-73
2023/02/11 10:39:13;;;;;;;0.60;0.60;;;;;;;;;;5032682;28;20464;-74
2023/02/11 10:41:44;;;;;;;0.60;0.60;;;;;;;;;;5017576;28;20561;-75
2023/02/11 10:44:23;;;;;;;1.53;0.90;;;;;;;;;;5018318;28;20454;-73
2023/02/11 10:46:51;;;;;;;0.77;0.73;;;;;;;;;;5018333;28;20519;-74
2023/02/11 10:49:35;;;;;;;0.60;0.60;;;;;;;;;;5000022;28;20612;-72
2023/02/11 10:52:17;;;;;;;0.60;0.50;;;;;;;;;;5013688;28;20474;-74
2023/02/11 10:54:54;;;;;;;1.37;1.27;;;;;;;;;;5016560;28;20460;-75
2023/02/11 10:57:25;;;;;;;0.60;0.60;;;;;;;;;;5021778;28;20978;-74
2023/02/11 10:59:55;;;;;;;0.80;0.80;;;;;;;;;;5034224;28;20460;-74
2023/02/11 11:02:23;;;;;;;0.70;0.60;;;;;;;;;;5019398;28;20444;-73
2023/02/11 11:04:55;;;;;;;0.70;0.70;;;;;;;;;;5015430;28;20453;-75
2023/02/11 11:07:23;;;;;;;0.60;0.60;;;;;;;;;;5019302;28;20803;-74
2023/02/11 11:09:52;;;;;;;10.27;1.20;;;;;;;;;;5018909;28;20510;-74
2023/02/11 11:12:27;;;;;;;0.70;0.70;;;;;;;;;;5019192;28;20458;-78
2023/02/11 11:14:56;;;;;;;0.60;0.60;;;;;;;;;;5016452;28;21017;-75
2023/02/11 11:17:23;;;;;;;0.70;0.70;;;;;;;;;;5016821;28;20464;-75
2023/02/11 11:19:49;;;;;;;0.70;0.60;;;;;;;;;;5024527;28;20847;-73
2023/02/11 11:22:21;;;;;;;1.43;1.33;;;;;;;;;;5022377;28;20964;-76
2023/02/11 11:24:53;;;;;;;5.80;2.80;;;;;;;;;;5021981;28;20801;-75
2023/02/11 11:27:22;;;;;;;0.60;0.60;;;;;;;;;;5019472;28;20485;-76
2023/02/11 11:29:52;;;;;;;0.60;0.60;;;;;;;;;;5016639;28;20564;-76
2023/02/11 11:32:21;;;;;;;0.70;0.70;;;;;;;;;;5022631;28;20464;-76
2023/02/11 11:34:50;;;;;;;0.67;0.67;;;;;;;;;;5023293;28;20522;-75
2023/02/11 11:37:20;;;;;;;0.60;0.60;;;;;;;;;;5021583;28;20451;-74
2023/02/11 11:39:52;;;;;;;1.47;1.37;;;;;;;;;;5023174;28;20860;-74
2023/02/11 11:42:26;;;;;;;1.87;1.30;;;;;;;;;;5021067;28;20458;-76
2023/02/11 11:44:59;;;;;;;0.90;0.90;;;;;;;;;;5018369;28;20801;-73
2023/02/11 11:47:47;;;;;;;2.20;2.10;;;;;;;;;;5020437;28;20467;-73
2023/02/11 11:50:21;;;;;;;0.60;0.60;;;;;;;;;;5018454;28;20467;-75
2023/02/11 11:52:51;;;;;;;0.70;0.60;;;;;;;;;;5037099;28;20476;-75
2023/02/11 11:55:20;;;;;;;1.90;1.80;;;;;;;;;;5020154;28;20456;-74
2023/02/11 11:57:47;;;;;;;1.53;1.43;;;;;;;;;;5020670;28;20513;-73
2023/02/11 12:00:19;;;;;;;0.70;0.67;;;;;;;;;;5024487;28;20461;-73
2023/02/11 12:03:03;;;;;;;0.60;0.60;;;;;;;;;;5001663;28;20460;-73
2023/02/11 12:05:35;;;;;;;0.70;0.70;;;;;;;;;;5020981;28;21007;-74
2023/02/11 12:08:07;;;;;;;1.00;1.00;;;;;;;;;;5022791;28;21007;-75
2023/02/11 12:10:49;;;;;;;0.80;0.80;;;;;;;;;;5019392;28;20466;-75
2023/02/11 12:13:26;;;;;;;0.60;0.60;;;;;;;;;;5019138;28;20465;-74
2023/02/11 12:16:00;;;;;;;0.90;0.90;;;;;;;;;;5021164;28;20540;-74
2023/02/11 12:18:35;;;;;;;2.63;1.77;;;;;;;;;;5016993;28;20470;-73
2023/02/11 12:21:28;;;;;;;0.80;0.80;;;;;;;;;;5018278;28;20485;-75
2023/02/11 12:24:05;;;;;;;0.70;0.70;;;;;;;;;;5046036;22;20502;-75
2023/02/11 12:26:35;;;;;;;0.70;0.70;;;;;;;;;;5040293;28;20452;-73
2023/02/11 12:29:07;;;;;;;1.43;1.33;;;;;;;;;;5040919;28;20953;-75
2023/02/11 12:31:43;;;;;;;1.37;1.27;;;;;;;;;;5027480;28;20823;-74
2023/02/11 12:34:20;;;;;;;1.43;1.33;;;;;;;;;;5039156;28;20808;-75
2023/02/11 12:36:55;;;;;;;0.97;0.87;;;;;;;;;;5054384;28;20451;-74
2023/02/11 12:39:29;;;;;;;0.70;0.70;;;;;;;;;;5033419;28;20909;-76
2023/02/11 12:44:58;;;;;;;0.60;0.60;;;;;;;;;;5020637;28;20461;-76
2023/02/11 12:47:34;;;;;;;0.70;0.70;;;;;;;;;;5018717;28;20445;-74
2023/02/11 12:50:10;;;;;;;1.53;1.37;;;;;;;;;;5032362;28;20448;-72
2023/02/11 12:52:47;;;;;;;0.60;0.60;;;;;;;;;;5018204;28;20454;-74
2023/02/11 12:55:18;;;;;;;2.60;2.50;;;;;;;;;;5020131;28;20475;-73
2023/02/11 12:57:49;;;;;;;0.60;0.60;;;;;;;;;;5018118;28;20455;-75
2023/02/11 13:00:21;;;;;;;0.60;0.60;;;;;;;;;;5014975;28;20455;-76
2023/02/11 13:02:53;;;;;;;0.60;0.60;;;;;;;;;;5010683;28;20449;-74
2023/02/11 13:05:23;;;;;;;0.70;0.70;;;;;;;;;;5016803;28;20452;-75
2023/02/11 13:07:54;;;;;;;0.60;0.60;;;;;;;;;;5032697;28;20463;-74
2023/02/11 13:10:25;;;;;;;2.10;1.90;;;;;;;;;;5000163;28;20551;-77
2023/02/11 13:15:40;;;;;;;2.30;1.63;;;;;;;;;;5019872;28;20460;-76
2023/02/11 13:18:12;;;;;;;1.93;1.47;;;;;;;;;;5021756;28;20451;-75
2023/02/11 13:20:41;;;;;;;0.60;0.60;;;;;;;;;;5013916;28;20465;-77
2023/02/11 13:23:12;;;;;;;0.70;0.70;;;;;;;;;;5016735;28;20448;-74
2023/02/11 13:25:42;;;;;;;0.60;0.60;;;;;;;;;;5020484;28;20875;-77
2023/02/11 13:28:17;;;;;;;0.90;0.90;;;;;;;;;;5017734;28;20472;-75
2023/02/11 13:30:50;;;;;;;0.60;0.50;;;;;;;;;;5017353;28;20973;-73
2023/02/11 13:33:20;;;;;;;0.67;0.63;;;;;;;;;;5020131;28;20500;-76
2023/02/11 13:36:04;;;;;;;0.60;0.60;;;;;;;;;;5015861;28;20800;-72
2023/02/11 13:38:31;;;;;;;0.63;0.60;;;;;;;;;;5017717;28;20523;-74
2023/02/11 13:41:00;;;;;;;0.60;0.60;;;;;;;;;;5016909;28;20540;-74
2023/02/11 13:43:27;;;;;;;0.80;0.80;;;;;;;;;;5015192;28;20833;-75
2023/02/11 13:45:57;;;;;;;0.70;0.60;;;;;;;;;;5023247;28;20499;-74
2023/02/11 13:48:29;;;;;;;0.60;0.60;;;;;;;;;;5021293;28;21089;-75
2023/02/11 13:50:57;;;;;;;0.70;0.60;;;;;;;;;;5018180;28;20447;-75
2023/02/11 13:53:26;;;;;;;0.70;0.60;;;;;;;;;;5029936;28;20508;-74
2023/02/11 13:56:03;;;;;;;0.60;0.60;;;;;;;;;;5019164;28;20446;-74
2023/02/11 13:58:36;;;;;;;2.13;2.03;;;;;;;;;;5016787;28;20973;-75
2023/02/11 14:01:02;;;;;;;0.90;0.90;;;;;;;;;;5016849;28;20470;-74
2023/02/11 14:09:27;;;;;;;0.80;0.80;;;;;;;;;;5017547;28;21035;-74
2023/02/11 14:12:14;;;;;;;0.70;0.60;;;;;;;;;;5016359;28;20448;-74
2023/02/11 14:14:55;;;;;;;0.70;0.67;;;;;;;;;;5020065;28;20932;-75
2023/02/11 14:17:29;;;;;;;0.70;0.70;;;;;;;;;;5018613;28;20780;-74
2023/02/11 14:20:03;;;;;;;1.40;1.30;;;;;;;;;;5018246;28;20473;-77
2023/02/11 14:22:39;;;;;;;1.10;1.00;;;;;;;;;;5033836;28;20484;-75
2023/02/11 14:25:15;;;;;;;1.73;1.63;;;;;;;;;;5033813;28;20479;-74
2023/02/11 14:27:43;;;;;;;0.60;0.60;;;;;;;;;;5017688;28;20463;-75
2023/02/11 14:30:22;;;;;;;0.60;0.60;;;;;;;;;;5017116;28;20483;-74
2023/02/11 14:33:07;;;;;;;0.80;0.80;;;;;;;;;;5031749;28;20770;-74
2023/02/11 14:35:39;;;;;;;0.70;0.70;;;;;;;;;;5018142;28;20472;-75
2023/02/11 14:38:11;;;;;;;0.70;0.70;;;;;;;;;;5016617;28;20466;-74
2023/02/11 14:40:45;;;;;;;0.60;0.60;;;;;;;;;;5013448;28;20779;-74
2023/02/11 14:43:14;;;;;;;0.70;0.70;;;;;;;;;;5015372;28;20502;-75
2023/02/11 14:45:43;;;;;;;1.90;1.77;;;;;;;;;;5018540;28;20460;-73
2023/02/11 14:48:13;;;;;;;0.60;0.60;;;;;;;;;;5031161;28;20457;-75
2023/02/11 14:50:44;;;;;;;0.70;0.60;;;;;;;;;;5015845;28;20464;-77
2023/02/11 14:53:14;;;;;;;0.70;0.60;;;;;;;;;;5015534;28;20863;-74
2023/02/11 14:55:43;;;;;;;0.70;0.60;;;;;;;;;;5018332;28;20525;-75
2023/02/11 14:58:13;;;;;;;1.00;1.00;;;;;;;;;;5018278;28;20988;-75
2023/02/11 15:00:47;;;;;;;0.60;0.50;;;;;;;;;;5016822;28;20700;-74
2023/02/11 15:03:23;;;;;;;0.60;0.60;;;;;;;;;;5016424;28;20467;-74
2023/02/11 15:05:54;;;;;;;0.70;0.60;;;;;;;;;;5013431;28;20732;-75
2023/02/11 15:08:22;;;;;;;0.63;0.60;;;;;;;;;;5017521;28;20484;-75
2023/02/11 15:10:52;;;;;;;1.77;1.07;;;;;;;;;;5022556;28;20455;-75
2023/02/11 15:13:25;;;;;;;1.37;1.27;;;;;;;;;;5021297;28;20498;-74
2023/02/11 15:15:54;;;;;;;1.40;1.30;;;;;;;;;;5019669;28;20459;-74
2023/02/11 15:18:23;;;;;;;0.70;0.60;;;;;;;;;;5020676;28;20467;-74
2023/02/11 15:20:50;;;;;;;0.90;0.90;;;;;;;;;;5020803;28;20468;-73
2023/02/11 15:23:21;;;;;;;2.13;1.43;;;;;;;;;;5025157;28;20525;-74